createdAt,value
2022-12-19T00:01:19.006Z,85.67
2022-12-19T00:03:56.027Z,85.46
2022-12-19T00:06:25.040Z,85.39
2022-12-19T00:08:54.960Z,85.38
2022-12-19T00:11:24.484Z,85.32
2022-12-19T00:13:52.683Z,85.44
2022-12-19T00:16:24.386Z,85.59
2022-12-19T00:18:55.244Z,85.43
2022-12-19T00:21:27.195Z,85.23
2022-12-19T00:23:56.304Z,85.24
2022-12-19T00:26:25.760Z,85.04
2022-12-19T00:29:00.145Z,85.05
2022-12-19T00:31:32.060Z,85.09
2022-12-19T00:34:00.689Z,85.30
2022-12-19T00:36:31.843Z,85.28
2022-12-19T00:39:02.530Z,85.04
2022-12-19T00:41:41.494Z,84.95
2022-12-19T00:44:15.971Z,85.01
2022-12-19T00:46:47.824Z,85.14
2022-12-19T00:49:21.834Z,84.99
2022-12-19T00:51:50.127Z,84.79
2022-12-19T00:54:18.165Z,84.77
2022-12-19T00:56:46.480Z,85.25
2022-12-19T00:59:14.627Z,84.87
2022-12-19T01:01:46.511Z,84.77
2022-12-19T01:04:34.454Z,84.62
2022-12-19T01:07:05.876Z,84.69
2022-12-19T01:09:35.463Z,84.67
2022-12-19T01:12:24.734Z,84.80
2022-12-19T01:15:04.016Z,84.93
2022-12-19T01:17:37.766Z,85.16
2022-12-19T01:20:21.354Z,84.92
2022-12-19T01:23:00.281Z,85.01
2022-12-19T01:25:29.307Z,84.98
2022-12-19T01:27:57.793Z,84.68
2022-12-19T01:30:27.685Z,84.74
2022-12-19T01:32:58.291Z,84.84
2022-12-19T01:35:28.782Z,85.12
2022-12-19T01:38:06.108Z,84.66
2022-12-19T01:40:36.964Z,85.08
2022-12-19T01:43:05.121Z,85.03
2022-12-19T01:45:42.142Z,84.88
2022-12-19T01:48:18.215Z,84.81
2022-12-19T01:51:01.988Z,85.01
2022-12-19T01:53:48.595Z,84.87
2022-12-19T01:56:22.234Z,84.85
2022-12-19T01:59:05.788Z,85.01
2022-12-19T02:01:49.549Z,84.86
2022-12-19T02:04:20.945Z,84.89
2022-12-19T02:06:50.401Z,84.98
2022-12-19T02:09:19.173Z,85.05
2022-12-19T02:11:51.634Z,84.81
2022-12-19T02:14:22.521Z,84.79
2022-12-19T02:17:25.115Z,84.73
2022-12-19T02:20:07.474Z,84.62
2022-12-19T02:22:49.225Z,84.68
2022-12-19T02:25:33.376Z,84.59
2022-12-19T02:28:36.034Z,84.86
2022-12-19T02:31:22.185Z,85.01
2022-12-19T02:34:09.959Z,84.84
2022-12-19T02:36:55.662Z,84.83
2022-12-19T02:39:27.248Z,84.53
2022-12-19T02:41:59.131Z,84.82
2022-12-19T02:44:42.832Z,84.82
2022-12-19T02:47:11.507Z,84.95
2022-12-19T02:49:39.881Z,84.95
2022-12-19T02:52:32.437Z,84.74
2022-12-19T02:55:06.340Z,84.75
2022-12-19T02:58:17.036Z,84.70
2022-12-19T03:00:58.442Z,84.81
2022-12-19T03:03:56.681Z,84.74
2022-12-19T03:06:47.621Z,84.65
2022-12-19T03:09:27.499Z,84.79
2022-12-19T03:12:05.286Z,84.85
2022-12-19T03:14:35.771Z,84.93
2022-12-19T03:17:07.281Z,84.87
2022-12-19T03:19:38.701Z,84.62
2022-12-19T03:22:08.036Z,84.86
2022-12-19T03:24:36.712Z,84.73
2022-12-19T03:27:22.362Z,84.68
2022-12-19T03:29:59.967Z,84.94
2022-12-19T03:32:30.075Z,85.28
2022-12-19T03:35:09.521Z,85.07
2022-12-19T03:37:40.962Z,84.73
2022-12-19T03:40:18.178Z,84.80
2022-12-19T03:43:06.638Z,84.98
2022-12-19T03:45:50.495Z,84.92
2022-12-19T03:48:26.568Z,84.83
2022-12-19T03:51:17.232Z,84.99
2022-12-19T03:53:50.982Z,84.95
2022-12-19T03:56:44.799Z,85.17
2022-12-19T03:59:26.807Z,85.05
2022-12-19T04:01:55.655Z,84.94
2022-12-19T04:04:26.066Z,85.17
2022-12-19T04:06:55.961Z,85.12
2022-12-19T04:09:25.042Z,84.92
2022-12-19T04:12:08.777Z,84.69
2022-12-19T04:14:38.888Z,84.40
2022-12-19T04:17:09.807Z,84.30
2022-12-19T04:19:48.472Z,84.31
2022-12-19T04:22:22.787Z,84.31
2022-12-19T04:24:52.067Z,84.34
2022-12-19T04:27:21.996Z,84.17
2022-12-19T04:29:55.479Z,84.10
2022-12-19T04:32:25.613Z,84.19
2022-12-19T04:34:53.662Z,84.42
2022-12-19T04:37:21.704Z,84.49
2022-12-19T04:39:49.899Z,84.64
2022-12-19T04:42:17.937Z,84.43
2022-12-19T04:44:46.074Z,84.28
2022-12-19T04:47:14.380Z,84.16
2022-12-19T04:49:42.404Z,84.00
2022-12-19T04:52:10.588Z,83.90
2022-12-19T04:54:39.427Z,83.86
2022-12-19T04:57:07.861Z,83.83
2022-12-19T04:59:35.859Z,83.99
2022-12-19T05:02:07.211Z,84.19
2022-12-19T05:04:35.306Z,84.10
2022-12-19T05:07:03.345Z,84.27
2022-12-19T05:09:31.383Z,84.24
2022-12-19T05:11:59.475Z,84.23
2022-12-19T05:14:27.890Z,84.07
2022-12-19T05:17:01.259Z,84.28
2022-12-19T05:19:29.974Z,84.44
2022-12-19T05:21:58.279Z,84.26
2022-12-19T05:24:26.379Z,83.94
2022-12-19T05:26:54.459Z,83.63
2022-12-19T05:29:22.875Z,83.73
2022-12-19T05:31:50.947Z,83.83
2022-12-19T05:34:19.037Z,83.76
2022-12-19T05:36:47.071Z,83.93
2022-12-19T05:39:15.188Z,83.90
2022-12-19T05:41:46.376Z,83.85
2022-12-19T05:44:17.404Z,83.67
2022-12-19T05:46:45.584Z,83.63
2022-12-19T05:49:13.828Z,83.32
2022-12-19T05:51:41.924Z,82.92
2022-12-19T05:54:09.983Z,82.95
2022-12-19T05:56:38.040Z,83.12
2022-12-19T05:59:06.127Z,83.19
2022-12-19T06:01:34.436Z,83.18
2022-12-19T06:04:02.642Z,83.44
2022-12-19T06:06:31.691Z,83.25
2022-12-19T06:09:00.470Z,83.25
2022-12-19T06:11:28.632Z,83.46
2022-12-19T06:13:56.902Z,83.14
2022-12-19T06:16:24.975Z,82.92
2022-12-19T06:18:54.067Z,82.98
2022-12-19T06:21:23.377Z,83.30
2022-12-19T06:23:51.383Z,83.41
2022-12-19T06:26:21.548Z,83.18
2022-12-19T06:28:52.333Z,82.92
2022-12-19T06:31:22.646Z,83.07
2022-12-19T06:33:51.013Z,83.07
2022-12-19T06:36:25.134Z,83.04
2022-12-19T06:38:54.736Z,83.18
2022-12-19T06:41:41.521Z,82.92
2022-12-19T06:44:12.773Z,82.81
2022-12-19T06:46:42.046Z,82.76
2022-12-19T06:49:11.578Z,82.88
2022-12-19T06:51:39.896Z,82.99
2022-12-19T06:54:07.909Z,83.25
2022-12-19T06:56:37.801Z,83.20
2022-12-19T06:59:06.967Z,83.22
2022-12-19T07:01:48.306Z,83.36
2022-12-19T07:04:24.067Z,83.18
2022-12-19T07:06:52.295Z,83.21
2022-12-19T07:09:20.505Z,83.28
2022-12-19T07:11:48.795Z,83.22
2022-12-19T07:14:16.798Z,82.87
2022-12-19T07:16:46.557Z,82.67
2022-12-19T07:19:15.439Z,82.78
2022-12-19T07:21:44.153Z,82.51
2022-12-19T07:24:15.021Z,82.38
2022-12-19T07:26:43.908Z,82.26
2022-12-19T07:29:12.598Z,82.11
2022-12-19T07:31:40.831Z,82.28
2022-12-19T07:34:10.170Z,82.47
2022-12-19T07:36:38.274Z,82.95
2022-12-19T07:39:06.396Z,82.01
2022-12-19T07:41:37.489Z,82.36
2022-12-19T07:44:06.737Z,82.68
2022-12-19T07:46:35.262Z,83.07
2022-12-19T07:49:03.343Z,82.88
2022-12-19T07:51:31.377Z,82.88
2022-12-19T07:54:00.436Z,82.54
2022-12-19T07:56:28.909Z,82.34
2022-12-19T07:58:57.084Z,82.41
2022-12-19T08:01:25.249Z,82.43
2022-12-19T08:03:58.192Z,82.66
2022-12-19T08:06:27.532Z,83.08
2022-12-19T08:08:57.285Z,82.80
2022-12-19T08:11:29.860Z,83.28
2022-12-19T08:13:58.103Z,82.99
2022-12-19T08:16:28.164Z,82.73
2022-12-19T08:18:56.384Z,82.94
2022-12-19T08:21:25.440Z,82.96
2022-12-19T08:23:53.595Z,82.58
2022-12-19T08:26:26.325Z,82.49
2022-12-19T08:28:57.139Z,82.61
2022-12-19T08:31:27.265Z,82.54
2022-12-19T08:33:56.981Z,82.55
2022-12-19T08:36:25.586Z,82.39
2022-12-19T08:38:54.524Z,82.59
2022-12-19T08:41:23.380Z,82.55
2022-12-19T08:43:53.378Z,82.30
2022-12-19T08:46:22.568Z,82.83
2022-12-19T08:48:50.920Z,82.53
2022-12-19T08:51:19.969Z,82.85
2022-12-19T08:53:48.792Z,82.15
2022-12-19T08:56:19.473Z,82.62
2022-12-19T08:58:48.634Z,82.54
2022-12-19T09:01:23.994Z,82.43
2022-12-19T09:04:18.293Z,82.20
2022-12-19T09:06:43.404Z,82.11
2022-12-19T09:09:11.609Z,82.46
2022-12-19T09:11:47.886Z,82.27
2022-12-19T09:14:20.943Z,82.39
2022-12-19T09:16:49.789Z,82.41
2022-12-19T09:19:18.203Z,82.07
2022-12-19T09:21:46.289Z,82.26
2022-12-19T09:24:15.269Z,82.36
2022-12-19T09:26:44.700Z,82.04
2022-12-19T09:29:20.487Z,82.34
2022-12-19T09:31:55.820Z,82.52
2022-12-19T09:34:38.317Z,82.47
2022-12-19T09:37:09.187Z,82.52
2022-12-19T09:39:43.731Z,81.97
2022-12-19T09:42:20.963Z,81.66
2022-12-19T09:45:01.677Z,81.64
2022-12-19T09:47:33.149Z,81.27
2022-12-19T09:50:02.630Z,81.57
2022-12-19T09:52:41.212Z,81.55
2022-12-19T09:55:20.550Z,81.56
2022-12-19T09:57:51.720Z,81.53
2022-12-19T10:00:22.467Z,81.63
2022-12-19T10:03:01.512Z,81.68
2022-12-19T10:06:52.540Z,82.18
2022-12-19T10:08:45.656Z,81.79
2022-12-19T10:12:38.548Z,81.62
2022-12-19T10:15:14.938Z,81.29
2022-12-19T10:18:05.479Z,81.14
2022-12-19T10:20:40.923Z,81.43
2022-12-19T10:23:18.076Z,81.28
2022-12-19T10:26:00.429Z,81.18
2022-12-19T10:28:50.249Z,80.87
2022-12-19T10:31:27.350Z,80.78
2022-12-19T10:34:07.096Z,80.78
2022-12-19T10:39:51.566Z,80.91
2022-12-19T10:42:37.743Z,81.19
2022-12-19T10:45:14.578Z,81.12
2022-12-19T10:47:42.790Z,81.12
2022-12-19T10:50:23.140Z,80.71
2022-12-19T10:53:03.400Z,80.04
2022-12-19T10:55:45.669Z,80.11
2022-12-19T10:58:22.888Z,80.29
2022-12-19T11:01:12.166Z,80.70
2022-12-19T11:03:43.729Z,80.52
2022-12-19T11:06:43.893Z,80.93
2022-12-19T11:09:22.855Z,80.35
2022-12-19T11:13:20.132Z,80.50
2022-12-19T11:20:52.910Z,80.36
2022-12-19T11:27:48.698Z,80.38
2022-12-19T11:30:05.876Z,80.64
2022-12-19T11:30:38.645Z,79.89
2022-12-19T11:30:46.767Z,80.53
2022-12-19T11:31:48.175Z,79.92
2022-12-19T11:33:21.194Z,79.94
2022-12-19T11:35:52.989Z,79.69
2022-12-19T11:38:48.808Z,80.36
2022-12-19T11:41:25.650Z,80.35
2022-12-19T11:44:02.229Z,79.88
2022-12-19T11:46:52.852Z,79.88
2022-12-19T11:49:27.162Z,79.32
2022-12-19T11:51:56.787Z,79.79
2022-12-19T11:54:38.148Z,79.71
2022-12-19T11:57:11.784Z,79.68
2022-12-19T11:59:41.741Z,79.52
2022-12-19T12:02:40.344Z,79.43
2022-12-19T12:05:24.294Z,79.48
2022-12-19T12:10:22.938Z,79.01
2022-12-19T12:17:32.356Z,78.83
2022-12-19T12:23:46.594Z,78.67
2022-12-19T12:29:14.503Z,78.60
2022-12-19T12:31:07.145Z,78.54
2022-12-19T12:31:10.131Z,78.28
2022-12-19T12:31:38.594Z,77.95
2022-12-19T12:31:49.209Z,78.51
2022-12-19T12:35:51.514Z,78.27
2022-12-19T12:38:48.935Z,78.50
2022-12-19T12:41:17.166Z,78.41
2022-12-19T12:44:08.611Z,78.78
2022-12-19T12:46:40.661Z,78.85
2022-12-19T12:49:46.408Z,77.92
2022-12-19T12:52:20.247Z,78.26
2022-12-19T12:54:50.416Z,78.70
2022-12-19T12:57:40.048Z,78.91
2022-12-19T13:00:16.448Z,79.00
2022-12-19T13:02:55.153Z,79.21
2022-12-19T13:05:32.166Z,79.10
2022-12-19T13:08:00.373Z,79.29
2022-12-19T13:10:31.908Z,79.17
2022-12-19T13:13:14.277Z,79.24
2022-12-19T13:15:45.264Z,79.45
2022-12-19T13:18:30.882Z,79.37
2022-12-19T13:21:03.866Z,79.31
2022-12-19T13:23:37.844Z,79.92
2022-12-19T13:26:21.432Z,79.29
2022-12-19T13:28:49.536Z,78.82
2022-12-19T13:31:22.278Z,79.08
2022-12-19T13:33:56.392Z,79.30
2022-12-19T13:39:48.075Z,79.41
2022-12-19T13:40:13.539Z,79.40
2022-12-19T13:43:26.334Z,79.16
2022-12-19T13:46:01.041Z,78.94
2022-12-19T13:48:41.810Z,79.17
2022-12-19T13:51:11.431Z,79.29
2022-12-19T13:53:40.959Z,79.09
2022-12-19T13:56:09.020Z,79.19
2022-12-19T13:58:44.301Z,78.77
2022-12-19T14:01:32.719Z,78.44
2022-12-19T14:04:08.011Z,78.99
2022-12-19T14:06:47.339Z,78.94
2022-12-19T14:11:26.273Z,78.69
2022-12-19T14:13:58.131Z,78.87
2022-12-19T14:15:51.907Z,78.69
2022-12-19T14:18:42.407Z,78.15
2022-12-19T14:22:06.313Z,78.37
2022-12-19T14:24:18.773Z,78.26
2022-12-19T14:28:23.280Z,78.47
2022-12-19T14:30:30.182Z,78.23
2022-12-19T14:33:44.841Z,78.72
2022-12-19T14:36:09.593Z,78.41
2022-12-19T14:39:25.611Z,78.59
2022-12-19T14:41:48.693Z,78.42
2022-12-19T14:53:10.811Z,78.36
2022-12-19T14:53:52.111Z,78.42
2022-12-19T14:54:09.044Z,78.41
2022-12-19T14:54:48.108Z,78.12
2022-12-19T14:56:16.822Z,78.18
2022-12-19T14:58:53.567Z,78.19
2022-12-19T15:01:29.868Z,78.03
2022-12-19T15:04:52.467Z,78.10
2022-12-19T15:07:07.281Z,78.20
2022-12-19T15:11:09.294Z,78.17
2022-12-19T15:14:55.375Z,78.06
2022-12-19T15:16:27.129Z,78.24
2022-12-19T15:18:58.462Z,78.30
2022-12-19T15:21:28.206Z,78.02
2022-12-19T15:23:57.012Z,78.19
2022-12-19T15:26:32.754Z,78.30
2022-12-19T15:29:02.001Z,78.09
2022-12-19T15:31:35.146Z,78.00
2022-12-19T15:34:41.878Z,78.22
2022-12-19T15:37:11.839Z,78.31
2022-12-19T15:39:41.043Z,78.40
2022-12-19T15:42:23.066Z,78.03
2022-12-19T15:44:53.522Z,77.64
2022-12-19T15:47:31.449Z,78.35
2022-12-19T15:50:06.809Z,78.12
2022-12-19T15:52:34.930Z,78.06
2022-12-19T15:55:03.138Z,78.18
2022-12-19T15:57:36.096Z,78.34
2022-12-19T16:00:08.473Z,78.29
2022-12-19T16:03:20.464Z,78.14
2022-12-19T16:05:29.610Z,78.35
2022-12-19T16:07:59.217Z,78.19
2022-12-19T16:10:27.527Z,78.17
2022-12-19T16:12:57.968Z,78.22
2022-12-19T16:15:26.350Z,78.10
2022-12-19T16:17:55.474Z,78.36
2022-12-19T16:20:29.231Z,78.31
2022-12-19T16:22:58.038Z,78.91
2022-12-19T16:25:33.847Z,78.23
2022-12-19T16:28:03.865Z,78.22
2022-12-19T16:30:33.957Z,78.52
2022-12-19T16:33:02.408Z,78.36
2022-12-19T16:38:20.099Z,78.64
2022-12-19T16:40:50.562Z,78.33
2022-12-19T16:43:32.283Z,78.25
2022-12-19T16:46:02.051Z,77.97
2022-12-19T16:48:30.746Z,78.23
2022-12-19T16:50:59.397Z,77.76
2022-12-19T16:53:27.766Z,78.21
2022-12-19T16:55:57.347Z,77.96
2022-12-19T16:58:28.395Z,78.37
2022-12-19T17:00:57.043Z,78.05
2022-12-19T17:03:38.234Z,77.71
2022-12-19T17:06:06.515Z,78.24
2022-12-19T17:08:34.638Z,78.30
2022-12-19T17:11:03.675Z,78.07
2022-12-19T17:13:31.850Z,78.44
2022-12-19T17:16:00.713Z,78.14
2022-12-19T17:18:34.847Z,79.06
2022-12-19T17:21:03.249Z,79.23
2022-12-19T17:23:32.769Z,79.05
2022-12-19T17:26:01.343Z,78.87
2022-12-19T17:28:30.015Z,78.96
2022-12-19T17:31:02.926Z,78.57
2022-12-19T17:33:38.259Z,78.62
2022-12-19T17:36:11.491Z,78.92
2022-12-19T17:38:39.630Z,78.22
2022-12-19T17:41:17.280Z,79.26
2022-12-19T17:43:45.808Z,78.85
2022-12-19T17:46:23.009Z,78.76
2022-12-19T17:48:53.764Z,78.86
2022-12-19T17:51:23.429Z,78.79
2022-12-19T17:53:51.724Z,78.38
2022-12-19T17:56:21.149Z,78.66
2022-12-19T17:58:49.615Z,79.44
2022-12-19T18:01:23.244Z,79.03
2022-12-19T18:03:53.333Z,78.79
2022-12-19T18:06:21.683Z,78.78
2022-12-19T18:08:49.874Z,78.93
2022-12-19T18:11:19.741Z,79.03
2022-12-19T18:13:48.867Z,78.22
2022-12-19T18:16:20.881Z,78.52
2022-12-19T18:18:49.842Z,78.61
2022-12-19T18:21:21.313Z,78.23
2022-12-19T18:23:49.616Z,78.49
2022-12-19T18:26:18.157Z,77.90
2022-12-19T18:28:46.279Z,78.24
2022-12-19T18:31:25.887Z,78.23
2022-12-19T18:33:55.394Z,78.25
2022-12-19T18:36:28.793Z,77.97
2022-12-19T18:38:58.269Z,78.06
2022-12-19T18:41:26.764Z,78.12
2022-12-19T18:43:54.965Z,78.57
2022-12-19T18:46:27.718Z,78.59
2022-12-19T18:48:56.008Z,78.39
2022-12-19T18:51:24.298Z,78.47
2022-12-19T18:53:52.742Z,78.21
2022-12-19T18:56:20.824Z,78.42
2022-12-19T18:58:48.794Z,78.12
2022-12-19T19:01:20.526Z,78.42
2022-12-19T19:03:57.318Z,78.06
2022-12-19T19:06:28.993Z,78.84
2022-12-19T19:08:58.552Z,78.46
2022-12-19T19:11:52.136Z,78.48
2022-12-19T19:14:20.169Z,78.52
2022-12-19T19:16:49.276Z,78.84
2022-12-19T19:19:18.899Z,78.65
2022-12-19T19:21:47.335Z,78.56
2022-12-19T19:24:19.346Z,79.17
2022-12-19T19:26:47.928Z,78.86
2022-12-19T19:29:19.141Z,78.90
2022-12-19T19:31:50.283Z,78.91
2022-12-19T19:34:23.472Z,79.28
2022-12-19T19:36:56.136Z,79.13
2022-12-19T19:39:25.077Z,78.88
2022-12-19T19:41:54.017Z,78.94
2022-12-19T19:44:22.393Z,78.77
2022-12-19T19:46:50.760Z,79.15
2022-12-19T19:49:21.282Z,78.98
2022-12-19T19:51:49.808Z,79.05
2022-12-19T19:54:18.361Z,78.86
2022-12-19T19:56:46.448Z,79.17
2022-12-19T19:59:14.647Z,78.89
2022-12-19T20:01:43.336Z,79.23
2022-12-19T20:04:11.529Z,79.06
2022-12-19T20:06:39.692Z,79.07
2022-12-19T20:09:07.714Z,79.07
2022-12-19T20:11:35.864Z,79.20
2022-12-19T20:14:04.653Z,79.06
2022-12-19T20:16:33.826Z,79.11
2022-12-19T20:19:02.050Z,79.61
2022-12-19T20:21:31.496Z,79.42
2022-12-19T20:24:00.054Z,79.13
2022-12-19T20:26:28.243Z,79.52
2022-12-19T20:28:56.373Z,79.24
2022-12-19T20:31:24.976Z,79.50
2022-12-19T20:33:56.954Z,79.56
2022-12-19T20:36:25.377Z,79.75
2022-12-19T20:38:53.981Z,79.58
2022-12-19T20:41:22.440Z,79.69
2022-12-19T20:43:52.417Z,79.46
2022-12-19T20:46:21.579Z,79.45
2022-12-19T20:48:50.585Z,79.66
2022-12-19T20:51:20.832Z,79.56
2022-12-19T20:53:51.655Z,79.66
2022-12-19T20:56:23.190Z,79.81
2022-12-19T20:58:52.044Z,79.72
2022-12-19T21:01:23.230Z,79.75
2022-12-19T21:03:52.829Z,79.82
2022-12-19T21:06:22.848Z,79.80
2022-12-19T21:08:50.959Z,79.73
2022-12-19T21:11:19.146Z,80.00
2022-12-19T21:13:47.337Z,80.01
2022-12-19T21:16:23.129Z,79.91
2022-12-19T21:18:51.687Z,79.81
2022-12-19T21:21:24.652Z,80.12
2022-12-19T21:23:54.115Z,79.99
2022-12-19T21:26:24.363Z,80.19
2022-12-19T21:28:53.137Z,79.92
2022-12-19T21:31:25.351Z,80.15
2022-12-19T21:33:55.513Z,80.09
2022-12-19T21:36:25.068Z,80.11
2022-12-19T21:38:55.967Z,80.01
2022-12-19T21:41:24.259Z,80.09
2022-12-19T21:43:54.291Z,80.12
2022-12-19T21:46:25.118Z,80.12
2022-12-19T21:48:55.387Z,80.07
2022-12-19T21:51:26.721Z,80.05
2022-12-19T21:54:02.268Z,80.39
2022-12-19T21:56:34.449Z,80.70
2022-12-19T21:59:10.101Z,80.59
2022-12-19T22:01:38.830Z,80.18
2022-12-19T22:04:21.108Z,80.57
2022-12-19T22:06:51.115Z,80.61
2022-12-19T22:09:22.726Z,80.65
2022-12-19T22:11:51.839Z,80.65
2022-12-19T22:14:20.022Z,80.82
2022-12-19T22:16:48.275Z,80.60
2022-12-19T22:19:18.437Z,80.91
2022-12-19T22:21:47.880Z,80.86
2022-12-19T22:24:16.968Z,80.86
2022-12-19T22:26:45.221Z,80.67
2022-12-19T22:29:17.465Z,80.56
2022-12-19T22:31:46.170Z,80.92
2022-12-19T22:34:16.746Z,80.83
2022-12-19T22:36:45.398Z,80.66
2022-12-19T22:39:16.245Z,80.77
2022-12-19T22:41:45.215Z,80.67
2022-12-19T22:44:19.534Z,80.68
2022-12-19T22:46:48.591Z,80.83
2022-12-19T22:49:17.297Z,80.45
2022-12-19T22:51:45.584Z,80.54
2022-12-19T22:54:14.036Z,80.58
2022-12-19T22:56:42.770Z,80.39
2022-12-19T22:59:12.675Z,80.82
2022-12-19T23:01:43.693Z,80.34
2022-12-19T23:04:15.124Z,80.87
2022-12-19T23:06:44.224Z,80.65
2022-12-19T23:09:15.037Z,80.58
2022-12-19T23:11:45.190Z,80.43
2022-12-19T23:14:16.518Z,80.89
2022-12-19T23:16:45.151Z,80.79
2022-12-19T23:19:15.503Z,80.52
2022-12-19T23:21:43.760Z,80.90
2022-12-19T23:24:12.471Z,80.93
2022-12-19T23:26:41.262Z,80.95
2022-12-19T23:29:12.356Z,80.69
2022-12-19T23:31:42.739Z,80.30
2022-12-19T23:34:11.209Z,80.68
2022-12-19T23:39:27.549Z,80.56
2022-12-19T23:41:55.621Z,80.64
2022-12-19T23:44:23.829Z,80.51
2022-12-19T23:46:51.892Z,80.44
2022-12-19T23:49:19.974Z,80.33
2022-12-19T23:51:48.040Z,80.20
2022-12-19T23:54:16.185Z,80.38
2022-12-19T23:56:44.378Z,80.49
2022-12-19T23:59:12.515Z,80.37
